sensor_id;sensor_type;location;lat;lon;timestamp;pressure;altitude;pressure_sealevel;temperature;humidity
28701;BME280;15877;52.344;16.790;2022-10-04T00:00:25;100819.05;;;12.96;77.98
28701;BME280;15877;52.344;16.790;2022-10-04T00:03:25;100835.49;;;13.06;77.87
28701;BME280;15877;52.344;16.790;2022-10-04T00:06:00;100835.38;;;13.04;77.72
28701;BME280;15877;52.344;16.790;2022-10-04T00:08:41;100834.70;;;13.03;77.58
28701;BME280;15877;52.344;16.790;2022-10-04T00:11:19;100837.94;;;12.90;78.31
28701;BME280;15877;52.344;16.790;2022-10-04T00:13:55;100836.60;;;12.99;77.85
28701;BME280;15877;52.344;16.790;2022-10-04T00:16:30;100799.86;;;12.69;78.00
28701;BME280;15877;52.344;16.790;2022-10-04T00:19:25;100839.65;;;12.83;78.35
28701;BME280;15877;52.344;16.790;2022-10-04T00:22:18;100840.08;;;12.89;78.29
28701;BME280;15877;52.344;16.790;2022-10-04T00:25:33;100843.54;;;12.87;78.28
28701;BME280;15877;52.344;16.790;2022-10-04T00:28:29;100842.02;;;12.90;78.11
28701;BME280;15877;52.344;16.790;2022-10-04T00:31:16;100844.55;;;12.82;78.39
28701;BME280;15877;52.344;16.790;2022-10-04T00:33:50;100848.12;;;12.89;78.21
28701;BME280;15877;52.344;16.790;2022-10-04T00:36:44;100848.56;;;12.96;77.99
28701;BME280;15877;52.344;16.790;2022-10-04T00:42:43;100844.07;;;12.94;77.47
28701;BME280;15877;52.344;16.790;2022-10-04T00:45:24;100843.91;;;12.94;77.83
28701;BME280;15877;52.344;16.790;2022-10-04T00:48:10;100842.71;;;12.93;77.73
28701;BME280;15877;52.344;16.790;2022-10-04T00:50:49;100844.17;;;12.90;77.89
28701;BME280;15877;52.344;16.790;2022-10-04T00:53:39;100848.02;;;12.88;77.73
28701;BME280;15877;52.344;16.790;2022-10-04T00:56:16;100844.48;;;12.82;78.06
28701;BME280;15877;52.344;16.790;2022-10-04T01:01:55;100839.55;;;12.78;78.09
28701;BME280;15877;52.344;16.790;2022-10-04T01:04:34;100834.45;;;12.78;78.01
28701;BME280;15877;52.344;16.790;2022-10-04T01:07:10;100833.67;;;12.75;78.29
28701;BME280;15877;52.344;16.790;2022-10-04T01:09:49;100829.30;;;12.76;78.40
28701;BME280;15877;52.344;16.790;2022-10-04T01:12:35;100833.15;;;12.77;78.34
28701;BME280;15877;52.344;16.790;2022-10-04T01:15:14;100838.11;;;12.78;78.14
28701;BME280;15877;52.344;16.790;2022-10-04T01:18:09;100838.70;;;12.72;78.20
28701;BME280;15877;52.344;16.790;2022-10-04T01:20:51;100837.69;;;12.73;78.25
28701;BME280;15877;52.344;16.790;2022-10-04T01:23:39;100837.84;;;12.73;78.29
28701;BME280;15877;52.344;16.790;2022-10-04T01:26:38;100838.42;;;12.74;78.39
28701;BME280;15877;52.344;16.790;2022-10-04T01:29:14;100820.16;;;12.60;78.37
28701;BME280;15877;52.344;16.790;2022-10-04T01:31:48;100841.20;;;12.73;78.43
28701;BME280;15877;52.344;16.790;2022-10-04T01:34:22;100844.08;;;12.66;78.50
28701;BME280;15877;52.344;16.790;2022-10-04T01:36:56;100844.39;;;12.62;78.88
28701;BME280;15877;52.344;16.790;2022-10-04T01:39:29;100843.52;;;12.70;78.54
28701;BME280;15877;52.344;16.790;2022-10-04T01:42:05;100847.29;;;12.75;78.14
28701;BME280;15877;52.344;16.790;2022-10-04T01:44:42;100847.88;;;12.69;78.20
28701;BME280;15877;52.344;16.790;2022-10-04T01:47:18;100845.41;;;12.61;78.80
28701;BME280;15877;52.344;16.790;2022-10-04T01:49:53;100847.55;;;12.64;78.60
28701;BME280;15877;52.344;16.790;2022-10-04T01:52:32;100845.33;;;12.69;78.48
28701;BME280;15877;52.344;16.790;2022-10-04T01:55:11;100851.98;;;12.60;78.68
28701;BME280;15877;52.344;16.790;2022-10-04T01:57:48;100851.14;;;12.61;78.73
28701;BME280;15877;52.344;16.790;2022-10-04T02:00:23;100851.45;;;12.60;78.60
28701;BME280;15877;52.344;16.790;2022-10-04T02:02:58;100852.73;;;12.50;79.18
28701;BME280;15877;52.344;16.790;2022-10-04T02:05:38;100851.80;;;12.46;79.25
28701;BME280;15877;52.344;16.790;2022-10-04T02:08:15;100852.94;;;12.40;79.66
28701;BME280;15877;52.344;16.790;2022-10-04T02:10:50;100836.05;;;12.28;79.83
28701;BME280;15877;52.344;16.790;2022-10-04T02:13:25;100851.77;;;12.34;79.90
28701;BME280;15877;52.344;16.790;2022-10-04T02:16:09;100852.84;;;12.35;79.91
28701;BME280;15877;52.344;16.790;2022-10-04T02:18:42;100854.13;;;12.36;79.86
28701;BME280;15877;52.344;16.790;2022-10-04T02:21:16;100851.02;;;12.39;79.76
28701;BME280;15877;52.344;16.790;2022-10-04T02:27:04;100853.07;;;12.39;79.69
28701;BME280;15877;52.344;16.790;2022-10-04T02:29:36;100850.92;;;12.46;79.28
28701;BME280;15877;52.344;16.790;2022-10-04T02:32:10;100854.08;;;12.38;79.57
28701;BME280;15877;52.344;16.790;2022-10-04T02:35:03;100845.91;;;12.36;79.38
28701;BME280;15877;52.344;16.790;2022-10-04T02:37:38;100853.42;;;12.37;79.45
28701;BME280;15877;52.344;16.790;2022-10-04T02:40:14;100860.38;;;12.35;79.48
28701;BME280;15877;52.344;16.790;2022-10-04T02:47:18;100857.77;;;12.28;79.83
28701;BME280;15877;52.344;16.790;2022-10-04T02:49:55;100862.22;;;12.31;79.78
28701;BME280;15877;52.344;16.790;2022-10-04T02:52:41;100853.92;;;12.23;79.87
28701;BME280;15877;52.344;16.790;2022-10-04T02:55:19;100850.96;;;12.26;79.48
28701;BME280;15877;52.344;16.790;2022-10-04T02:57:54;100868.42;;;12.35;79.36
28701;BME280;15877;52.344;16.790;2022-10-04T03:00:32;100867.81;;;12.14;80.40
28701;BME280;15877;52.344;16.790;2022-10-04T03:03:22;100869.30;;;12.14;80.57
28701;BME280;15877;52.344;16.790;2022-10-04T03:13:33;100871.52;;;12.16;80.44
28701;BME280;15877;52.344;16.790;2022-10-04T03:16:08;100871.78;;;12.13;80.38
28701;BME280;15877;52.344;16.790;2022-10-04T03:18:41;100868.94;;;12.21;80.26
28701;BME280;15877;52.344;16.790;2022-10-04T03:21:16;100869.44;;;12.15;80.15
28701;BME280;15877;52.344;16.790;2022-10-04T03:23:50;100868.59;;;12.13;80.54
28701;BME280;15877;52.344;16.790;2022-10-04T03:26:27;100861.27;;;12.02;80.82
28701;BME280;15877;52.344;16.790;2022-10-04T03:29:00;100861.52;;;12.07;80.70
28701;BME280;15877;52.344;16.790;2022-10-04T03:31:35;100865.24;;;11.96;81.22
28701;BME280;15877;52.344;16.790;2022-10-04T03:34:14;100862.17;;;11.90;81.82
28701;BME280;15877;52.344;16.790;2022-10-04T03:36:47;100859.08;;;11.94;81.58
28701;BME280;15877;52.344;16.790;2022-10-04T03:39:27;100858.26;;;11.96;81.85
28701;BME280;15877;52.344;16.790;2022-10-04T03:42:06;100845.27;;;11.82;82.33
28701;BME280;15877;52.344;16.790;2022-10-04T03:44:41;100859.14;;;11.90;82.54
28701;BME280;15877;52.344;16.790;2022-10-04T03:47:18;100859.57;;;11.81;83.10
28701;BME280;15877;52.344;16.790;2022-10-04T03:49:52;100857.68;;;11.89;83.07
28701;BME280;15877;52.344;16.790;2022-10-04T03:52:30;100863.94;;;11.90;83.23
28701;BME280;15877;52.344;16.790;2022-10-04T03:55:06;100863.32;;;11.92;83.02
28701;BME280;15877;52.344;16.790;2022-10-04T03:57:42;100860.75;;;11.91;83.62
28701;BME280;15877;52.344;16.790;2022-10-04T04:00:17;100858.16;;;11.99;83.67
28701;BME280;15877;52.344;16.790;2022-10-04T04:02:54;100856.19;;;12.00;84.01
28701;BME280;15877;52.344;16.790;2022-10-04T04:05:30;100862.20;;;12.08;83.97
28701;BME280;15877;52.344;16.790;2022-10-04T04:08:10;100862.91;;;12.12;84.16
28701;BME280;15877;52.344;16.790;2022-10-04T04:10:48;100862.98;;;12.11;84.55
28701;BME280;15877;52.344;16.790;2022-10-04T04:13:25;100863.33;;;12.16;84.73
28701;BME280;15877;52.344;16.790;2022-10-04T04:16:02;100860.87;;;12.16;84.68
28701;BME280;15877;52.344;16.790;2022-10-04T04:18:36;100862.36;;;12.15;84.92
28701;BME280;15877;52.344;16.790;2022-10-04T04:21:16;100865.95;;;12.13;85.40
28701;BME280;15877;52.344;16.790;2022-10-04T04:23:52;100868.67;;;12.13;85.64
28701;BME280;15877;52.344;16.790;2022-10-04T04:26:32;100876.31;;;12.10;85.89
28701;BME280;15877;52.344;16.790;2022-10-04T04:29:14;100877.16;;;12.05;86.30
28701;BME280;15877;52.344;16.790;2022-10-04T04:31:53;100885.57;;;12.08;86.35
28701;BME280;15877;52.344;16.790;2022-10-04T04:34:28;100884.55;;;12.15;86.33
28701;BME280;15877;52.344;16.790;2022-10-04T04:37:02;100889.96;;;12.15;86.21
28701;BME280;15877;52.344;16.790;2022-10-04T04:39:34;100888.04;;;12.18;86.22
28701;BME280;15877;52.344;16.790;2022-10-04T04:42:17;100891.16;;;12.15;86.66
28701;BME280;15877;52.344;16.790;2022-10-04T04:44:55;100892.09;;;12.21;86.38
28701;BME280;15877;52.344;16.790;2022-10-04T04:47:32;100855.41;;;11.93;86.35
28701;BME280;15877;52.344;16.790;2022-10-04T04:50:13;100900.04;;;12.20;86.49
28701;BME280;15877;52.344;16.790;2022-10-04T04:52:48;100904.73;;;12.24;86.48
28701;BME280;15877;52.344;16.790;2022-10-04T04:55:23;100911.95;;;12.20;86.79
28701;BME280;15877;52.344;16.790;2022-10-04T04:57:58;100912.27;;;12.26;86.42
28701;BME280;15877;52.344;16.790;2022-10-04T05:00:33;100918.83;;;12.28;86.45
28701;BME280;15877;52.344;16.790;2022-10-04T05:03:17;100916.09;;;12.34;86.00
28701;BME280;15877;52.344;16.790;2022-10-04T05:05:50;100917.48;;;12.32;86.13
28701;BME280;15877;52.344;16.790;2022-10-04T05:08:25;100909.17;;;12.30;85.97
28701;BME280;15877;52.344;16.790;2022-10-04T05:11:11;100921.03;;;12.42;85.65
28701;BME280;15877;52.344;16.790;2022-10-04T05:13:51;100916.92;;;12.43;85.36
28701;BME280;15877;52.344;16.790;2022-10-04T05:16:35;100921.59;;;12.45;85.29
28701;BME280;15877;52.344;16.790;2022-10-04T05:19:14;100919.37;;;12.42;85.03
28701;BME280;15877;52.344;16.790;2022-10-04T05:21:50;100924.01;;;12.46;85.03
28701;BME280;15877;52.344;16.790;2022-10-04T05:24:27;100929.26;;;12.46;84.94
28701;BME280;15877;52.344;16.790;2022-10-04T05:27:04;100912.17;;;12.40;85.07
28701;BME280;15877;52.344;16.790;2022-10-04T05:29:40;100931.57;;;12.57;84.74
28701;BME280;15877;52.344;16.790;2022-10-04T05:32:23;100932.29;;;12.60;84.26
28701;BME280;15877;52.344;16.790;2022-10-04T05:35:12;100938.11;;;12.58;84.21
28701;BME280;15877;52.344;16.790;2022-10-04T05:37:52;100940.56;;;12.57;84.26
28701;BME280;15877;52.344;16.790;2022-10-04T05:40:44;100942.11;;;12.55;84.53
28701;BME280;15877;52.344;16.790;2022-10-04T05:43:29;100947.64;;;12.60;84.29
28701;BME280;15877;52.344;16.790;2022-10-04T05:46:20;100953.86;;;12.64;84.30
28701;BME280;15877;52.344;16.790;2022-10-04T05:48:59;100959.48;;;12.76;83.81
28701;BME280;15877;52.344;16.790;2022-10-04T05:51:47;100959.83;;;12.78;83.42
28701;BME280;15877;52.344;16.790;2022-10-04T05:54:23;100965.95;;;12.81;83.41
28701;BME280;15877;52.344;16.790;2022-10-04T05:57:29;100963.27;;;12.79;83.33
28701;BME280;15877;52.344;16.790;2022-10-04T06:00:12;100965.62;;;12.80;83.23
28701;BME280;15877;52.344;16.790;2022-10-04T06:03:15;100967.56;;;12.89;82.80
28701;BME280;15877;52.344;16.790;2022-10-04T06:05:56;100972.18;;;12.89;82.97
28701;BME280;15877;52.344;16.790;2022-10-04T06:08:49;100973.08;;;12.90;82.81
28701;BME280;15877;52.344;16.790;2022-10-04T06:11:36;100980.98;;;12.95;82.77
28701;BME280;15877;52.344;16.790;2022-10-04T06:14:39;100979.69;;;12.90;82.94
28701;BME280;15877;52.344;16.790;2022-10-04T06:23:58;100991.05;;;12.89;83.14
28701;BME280;15877;52.344;16.790;2022-10-04T06:26:36;100992.92;;;12.90;83.53
28701;BME280;15877;52.344;16.790;2022-10-04T06:29:14;100992.90;;;12.93;83.47
28701;BME280;15877;52.344;16.790;2022-10-04T06:32:06;100993.55;;;12.97;83.31
28701;BME280;15877;52.344;16.790;2022-10-04T06:35:07;100998.64;;;13.06;83.13
28701;BME280;15877;52.344;16.790;2022-10-04T06:37:59;101001.95;;;13.08;83.23
28701;BME280;15877;52.344;16.790;2022-10-04T06:43:52;101009.73;;;13.07;83.48
28701;BME280;15877;52.344;16.790;2022-10-04T06:46:33;101006.64;;;13.16;83.38
28701;BME280;15877;52.344;16.790;2022-10-04T06:49:19;101010.83;;;13.29;82.81
28701;BME280;15877;52.344;16.790;2022-10-04T06:52:28;101012.25;;;13.29;82.74
28701;BME280;15877;52.344;16.790;2022-10-04T06:55:23;101021.93;;;13.30;82.51
28701;BME280;15877;52.344;16.790;2022-10-04T06:58:15;101017.69;;;13.29;82.56
28701;BME280;15877;52.344;16.790;2022-10-04T07:02:10;101010.84;;;13.34;82.82
28701;BME280;15877;52.344;16.790;2022-10-04T07:04:48;101017.45;;;13.26;83.21
28701;BME280;15877;52.344;16.790;2022-10-04T07:07:41;101020.70;;;13.37;83.08
28701;BME280;15877;52.344;16.790;2022-10-04T07:10:26;101021.39;;;13.35;82.20
28701;BME280;15877;52.344;16.790;2022-10-04T07:13:15;101011.18;;;13.35;82.31
28701;BME280;15877;52.344;16.790;2022-10-04T07:15:55;101028.15;;;13.42;81.97
28701;BME280;15877;52.344;16.790;2022-10-04T07:18:34;101027.58;;;13.41;82.15
28701;BME280;15877;52.344;16.790;2022-10-04T07:21:13;101033.26;;;13.42;81.81
28701;BME280;15877;52.344;16.790;2022-10-04T07:23:50;101031.81;;;13.50;81.76
28701;BME280;15877;52.344;16.790;2022-10-04T07:26:28;101037.58;;;13.55;81.30
28701;BME280;15877;52.344;16.790;2022-10-04T07:29:05;101020.98;;;13.51;80.71
28701;BME280;15877;52.344;16.790;2022-10-04T07:32:07;101034.39;;;13.60;80.87
28701;BME280;15877;52.344;16.790;2022-10-04T07:34:45;101014.26;;;13.58;80.77
28701;BME280;15877;52.344;16.790;2022-10-04T07:37:21;101033.11;;;13.80;80.06
28701;BME280;15877;52.344;16.790;2022-10-04T07:40:03;101034.45;;;13.83;79.92
28701;BME280;15877;52.344;16.790;2022-10-04T07:42:45;101039.66;;;13.90;79.66
28701;BME280;15877;52.344;16.790;2022-10-04T07:45:22;101043.34;;;13.94;78.84
28701;BME280;15877;52.344;16.790;2022-10-04T07:48:14;101045.98;;;13.86;78.56
28701;BME280;15877;52.344;16.790;2022-10-04T07:50:54;101034.99;;;13.83;78.46
28701;BME280;15877;52.344;16.790;2022-10-04T07:53:33;101056.25;;;13.89;78.37
28701;BME280;15877;52.344;16.790;2022-10-04T07:56:12;101054.70;;;13.91;78.20
28701;BME280;15877;52.344;16.790;2022-10-04T07:58:53;101058.01;;;13.89;78.35
28701;BME280;15877;52.344;16.790;2022-10-04T08:01:36;101059.20;;;13.98;78.29
28701;BME280;15877;52.344;16.790;2022-10-04T08:04:24;101059.81;;;14.00;77.70
28701;BME280;15877;52.344;16.790;2022-10-04T08:07:02;101066.10;;;14.03;77.65
28701;BME280;15877;52.344;16.790;2022-10-04T08:09:44;101066.41;;;14.03;77.35
28701;BME280;15877;52.344;16.790;2022-10-04T08:12:24;101068.16;;;14.06;77.33
28701;BME280;15877;52.344;16.790;2022-10-04T08:15:13;101071.66;;;14.15;76.61
28701;BME280;15877;52.344;16.790;2022-10-04T08:17:59;101075.50;;;14.11;76.53
28701;BME280;15877;52.344;16.790;2022-10-04T08:20:45;101078.77;;;14.11;76.35
28701;BME280;15877;52.344;16.790;2022-10-04T08:26:21;101075.08;;;14.18;75.58
28701;BME280;15877;52.344;16.790;2022-10-04T08:29:08;101075.95;;;14.26;75.12
28701;BME280;15877;52.344;16.790;2022-10-04T08:32:06;101062.92;;;14.25;74.88
28701;BME280;15877;52.344;16.790;2022-10-04T08:34:56;101079.15;;;14.35;74.39
28701;BME280;15877;52.344;16.790;2022-10-04T08:37:43;101083.70;;;14.35;74.65
28701;BME280;15877;52.344;16.790;2022-10-04T08:40:42;101087.76;;;14.30;74.57
28701;BME280;15877;52.344;16.790;2022-10-04T08:43:41;101092.05;;;14.28;74.22
28701;BME280;15877;52.344;16.790;2022-10-04T08:46:52;101095.33;;;14.38;73.53
28701;BME280;15877;52.344;16.790;2022-10-04T08:56:02;101098.41;;;14.45;72.10
28701;BME280;15877;52.344;16.790;2022-10-04T08:59:13;101106.80;;;14.50;72.07
28701;BME280;15877;52.344;16.790;2022-10-04T09:05:19;101110.16;;;14.50;71.01
28701;BME280;15877;52.344;16.790;2022-10-04T09:08:19;101111.97;;;14.54;70.91
28701;BME280;15877;52.344;16.790;2022-10-04T09:11:05;101113.20;;;14.50;70.58
28701;BME280;15877;52.344;16.790;2022-10-04T09:13:48;101103.13;;;14.51;71.14
28701;BME280;15877;52.344;16.790;2022-10-04T09:16:29;101112.77;;;14.58;71.11
28701;BME280;15877;52.344;16.790;2022-10-04T09:19:20;101115.54;;;14.62;71.12
28701;BME280;15877;52.344;16.790;2022-10-04T09:22:17;101115.95;;;14.62;71.01
28701;BME280;15877;52.344;16.790;2022-10-04T09:28:13;101123.70;;;14.63;71.30
28701;BME280;15877;52.344;16.790;2022-10-04T09:31:10;101124.04;;;14.69;69.97
28701;BME280;15877;52.344;16.790;2022-10-04T09:33:53;101121.95;;;14.83;69.68
28701;BME280;15877;52.344;16.790;2022-10-04T09:36:47;101121.05;;;14.91;70.30
28701;BME280;15877;52.344;16.790;2022-10-04T09:39:48;101129.42;;;15.06;69.13
28701;BME280;15877;52.344;16.790;2022-10-04T09:42:58;101126.70;;;15.05;68.49
28701;BME280;15877;52.344;16.790;2022-10-04T09:46:03;101122.53;;;15.06;68.30
28701;BME280;15877;52.344;16.790;2022-10-04T09:48:49;101133.84;;;15.07;67.53
28701;BME280;15877;52.344;16.790;2022-10-04T09:51:38;101128.00;;;15.08;66.92
28701;BME280;15877;52.344;16.790;2022-10-04T09:54:25;101132.45;;;15.11;67.48
28701;BME280;15877;52.344;16.790;2022-10-04T09:57:13;101138.18;;;15.09;66.92
28701;BME280;15877;52.344;16.790;2022-10-04T10:00:05;101137.90;;;15.06;68.23
28701;BME280;15877;52.344;16.790;2022-10-04T10:06:13;101142.80;;;15.24;68.21
28701;BME280;15877;52.344;16.790;2022-10-04T10:09:04;101130.26;;;15.26;67.51
28701;BME280;15877;52.344;16.790;2022-10-04T10:11:44;101132.21;;;15.48;66.74
28701;BME280;15877;52.344;16.790;2022-10-04T10:14:59;101137.84;;;15.46;66.81
28701;BME280;15877;52.344;16.790;2022-10-04T10:17:42;101147.52;;;15.63;65.00
28701;BME280;15877;52.344;16.790;2022-10-04T10:20:48;101143.40;;;15.59;65.64
28701;BME280;15877;52.344;16.790;2022-10-04T10:23:45;101145.73;;;15.48;65.81
28701;BME280;15877;52.344;16.790;2022-10-04T10:26:32;101147.54;;;15.41;66.17
28701;BME280;15877;52.344;16.790;2022-10-04T10:29:41;101145.55;;;15.42;67.10
28701;BME280;15877;52.344;16.790;2022-10-04T10:41:08;101159.66;;;15.56;67.02
28701;BME280;15877;52.344;16.790;2022-10-04T10:44:11;101159.17;;;15.72;65.76
28701;BME280;15877;52.344;16.790;2022-10-04T10:47:03;101163.19;;;15.81;63.80
28701;BME280;15877;52.344;16.790;2022-10-04T10:49:51;101162.67;;;15.65;63.90
28701;BME280;15877;52.344;16.790;2022-10-04T10:55:47;101159.65;;;15.60;63.07
28701;BME280;15877;52.344;16.790;2022-10-04T10:58:55;101163.24;;;15.53;62.97
28701;BME280;15877;52.344;16.790;2022-10-04T11:02:17;101163.38;;;15.52;62.90
28701;BME280;15877;52.344;16.790;2022-10-04T11:05:21;101164.14;;;15.49;62.28
28701;BME280;15877;52.344;16.790;2022-10-04T11:08:01;101160.45;;;15.85;61.43
28701;BME280;15877;52.344;16.790;2022-10-04T11:11:10;101159.91;;;15.86;61.17
28701;BME280;15877;52.344;16.790;2022-10-04T11:14:01;101163.00;;;15.91;61.04
28701;BME280;15877;52.344;16.790;2022-10-04T11:17:21;101166.25;;;15.87;60.83
28701;BME280;15877;52.344;16.790;2022-10-04T11:20:17;101160.40;;;16.09;59.96
28701;BME280;15877;52.344;16.790;2022-10-04T11:26:40;101168.96;;;16.08;60.39
28701;BME280;15877;52.344;16.790;2022-10-04T11:29:27;101161.11;;;15.93;61.35
28701;BME280;15877;52.344;16.790;2022-10-04T11:32:24;101169.05;;;15.89;61.96
28701;BME280;15877;52.344;16.790;2022-10-04T11:35:36;101168.42;;;16.04;60.80
28701;BME280;15877;52.344;16.790;2022-10-04T11:38:30;101168.16;;;16.29;59.99
28701;BME280;15877;52.344;16.790;2022-10-04T11:41:13;101173.36;;;16.58;59.48
28701;BME280;15877;52.344;16.790;2022-10-04T11:46:51;101170.70;;;16.55;58.92
28701;BME280;15877;52.344;16.790;2022-10-04T11:49:37;101166.08;;;16.59;59.23
28701;BME280;15877;52.344;16.790;2022-10-04T11:52:37;101161.45;;;16.70;58.99
28701;BME280;15877;52.344;16.790;2022-10-04T11:55:36;101159.31;;;16.73;59.32
28701;BME280;15877;52.344;16.790;2022-10-04T11:58:19;101167.43;;;16.76;59.62
28701;BME280;15877;52.344;16.790;2022-10-04T12:01:20;101166.08;;;16.67;60.13
28701;BME280;15877;52.344;16.790;2022-10-04T12:07:36;101166.35;;;16.32;60.10
28701;BME280;15877;52.344;16.790;2022-10-04T12:10:26;101166.65;;;16.23;60.70
28701;BME280;15877;52.344;16.790;2022-10-04T12:13:25;101158.19;;;16.34;60.62
28701;BME280;15877;52.344;16.790;2022-10-04T12:16:14;101157.63;;;16.33;60.24
28701;BME280;15877;52.344;16.790;2022-10-04T12:19:06;101158.95;;;16.31;60.02
28701;BME280;15877;52.344;16.790;2022-10-04T12:22:01;101154.15;;;16.36;58.48
28701;BME280;15877;52.344;16.790;2022-10-04T12:25:20;101150.17;;;16.48;57.51
28701;BME280;15877;52.344;16.790;2022-10-04T12:28:21;101148.98;;;16.66;56.39
28701;BME280;15877;52.344;16.790;2022-10-04T12:31:10;101144.06;;;16.92;55.73
28701;BME280;15877;52.344;16.790;2022-10-04T12:33:50;101140.13;;;17.13;56.04
28701;BME280;15877;52.344;16.790;2022-10-04T12:36:49;101141.41;;;17.49;55.82
28701;BME280;15877;52.344;16.790;2022-10-04T12:39:36;101143.84;;;17.55;54.11
28701;BME280;15877;52.344;16.790;2022-10-04T12:42:22;101138.52;;;17.68;53.37
28701;BME280;15877;52.344;16.790;2022-10-04T12:45:15;101143.18;;;17.86;52.65
28701;BME280;15877;52.344;16.790;2022-10-04T12:48:04;101141.54;;;17.97;53.26
28701;BME280;15877;52.344;16.790;2022-10-04T12:50:54;101139.18;;;17.89;52.84
28701;BME280;15877;52.344;16.790;2022-10-04T12:53:39;101146.36;;;17.96;52.49
28701;BME280;15877;52.344;16.790;2022-10-04T12:56:28;101153.30;;;18.12;53.12
28701;BME280;15877;52.344;16.790;2022-10-04T12:59:16;101150.96;;;18.04;53.71
28701;BME280;15877;52.344;16.790;2022-10-04T13:02:00;101141.34;;;18.13;53.54
28701;BME280;15877;52.344;16.790;2022-10-04T13:04:39;101140.09;;;18.28;52.69
28701;BME280;15877;52.344;16.790;2022-10-04T13:07:28;101148.89;;;18.39;50.83
28701;BME280;15877;52.344;16.790;2022-10-04T13:10:19;101153.73;;;18.42;49.96
28701;BME280;15877;52.344;16.790;2022-10-04T13:13:15;101156.70;;;18.44;50.06
28701;BME280;15877;52.344;16.790;2022-10-04T13:15:54;101150.02;;;18.46;50.54
28701;BME280;15877;52.344;16.790;2022-10-04T13:18:55;101157.98;;;18.45;50.65
28701;BME280;15877;52.344;16.790;2022-10-04T13:21:57;101159.02;;;18.41;51.27
28701;BME280;15877;52.344;16.790;2022-10-04T13:24:39;101157.17;;;18.42;52.02
28701;BME280;15877;52.344;16.790;2022-10-04T13:27:32;101158.39;;;18.44;50.74
28701;BME280;15877;52.344;16.790;2022-10-04T13:30:17;101160.86;;;18.40;50.62
28701;BME280;15877;52.344;16.790;2022-10-04T13:33:01;101159.51;;;18.41;50.43
28701;BME280;15877;52.344;16.790;2022-10-04T13:35:42;101164.35;;;18.46;49.84
28701;BME280;15877;52.344;16.790;2022-10-04T13:38:46;101161.95;;;18.34;49.73
28701;BME280;15877;52.344;16.790;2022-10-04T13:41:37;101158.06;;;18.19;50.59
28701;BME280;15877;52.344;16.790;2022-10-04T13:44:42;101169.65;;;18.24;51.22
28701;BME280;15877;52.344;16.790;2022-10-04T13:47:32;101169.36;;;18.06;51.41
28701;BME280;15877;52.344;16.790;2022-10-04T13:50:34;101166.79;;;18.06;51.19
28701;BME280;15877;52.344;16.790;2022-10-04T13:53:23;101166.73;;;18.11;51.30
28701;BME280;15877;52.344;16.790;2022-10-04T13:56:52;101165.74;;;18.32;51.45
28701;BME280;15877;52.344;16.790;2022-10-04T13:59:34;101165.39;;;18.26;51.35
28701;BME280;15877;52.344;16.790;2022-10-04T14:02:57;101165.30;;;18.17;51.35
28701;BME280;15877;52.344;16.790;2022-10-04T14:05:59;101165.69;;;18.17;51.08
28701;BME280;15877;52.344;16.790;2022-10-04T14:15:09;101169.52;;;17.84;51.82
28701;BME280;15877;52.344;16.790;2022-10-04T14:18:18;101166.22;;;17.83;52.34
28701;BME280;15877;52.344;16.790;2022-10-04T14:21:23;101167.55;;;17.77;52.30
28701;BME280;15877;52.344;16.790;2022-10-04T14:27:46;101168.34;;;17.55;52.78
28701;BME280;15877;52.344;16.790;2022-10-04T14:30:30;101173.14;;;17.53;52.92
28701;BME280;15877;52.344;16.790;2022-10-04T14:33:38;101171.53;;;17.42;53.33
28701;BME280;15877;52.344;16.790;2022-10-04T14:36:42;101168.52;;;17.38;54.06
28701;BME280;15877;52.344;16.790;2022-10-04T14:39:32;101165.77;;;17.34;54.29
28701;BME280;15877;52.344;16.790;2022-10-04T14:42:47;101162.39;;;17.31;55.07
28701;BME280;15877;52.344;16.790;2022-10-04T14:45:29;101161.89;;;17.29;55.33
28701;BME280;15877;52.344;16.790;2022-10-04T14:48:20;101167.98;;;17.26;55.59
28701;BME280;15877;52.344;16.790;2022-10-04T14:51:19;101167.92;;;17.20;55.84
28701;BME280;15877;52.344;16.790;2022-10-04T14:54:00;101169.77;;;17.07;56.52
28701;BME280;15877;52.344;16.790;2022-10-04T14:56:53;101168.59;;;17.01;57.44
28701;BME280;15877;52.344;16.790;2022-10-04T15:03:06;101171.77;;;16.96;57.38
28701;BME280;15877;52.344;16.790;2022-10-04T15:06:11;101171.90;;;16.93;57.21
28701;BME280;15877;52.344;16.790;2022-10-04T15:11:55;101168.05;;;16.93;57.46
28701;BME280;15877;52.344;16.790;2022-10-04T15:15:06;101170.52;;;16.89;56.85
28701;BME280;15877;52.344;16.790;2022-10-04T15:17:56;101167.33;;;16.91;56.71
28701;BME280;15877;52.344;16.790;2022-10-04T15:20:44;101168.05;;;16.91;57.57
28701;BME280;15877;52.344;16.790;2022-10-04T15:23:31;101169.54;;;16.87;57.74
28701;BME280;15877;52.344;16.790;2022-10-04T15:29:08;101164.39;;;16.76;57.24
28701;BME280;15877;52.344;16.790;2022-10-04T15:32:03;101179.02;;;16.71;57.67
28701;BME280;15877;52.344;16.790;2022-10-04T15:34:41;101182.96;;;16.73;57.47
28701;BME280;15877;52.344;16.790;2022-10-04T15:37:24;101182.41;;;16.72;57.81
28701;BME280;15877;52.344;16.790;2022-10-04T15:40:33;101185.75;;;16.71;57.77
28701;BME280;15877;52.344;16.790;2022-10-04T15:43:19;101191.80;;;16.67;58.51
28701;BME280;15877;52.344;16.790;2022-10-04T15:46:08;101189.58;;;16.59;58.59
28701;BME280;15877;52.344;16.790;2022-10-04T15:49:11;101192.05;;;16.59;58.76
28701;BME280;15877;52.344;16.790;2022-10-04T15:52:03;101193.77;;;16.54;59.32